createdAt,value
2017-08-11T00:00:17.944Z,100362.81
2017-08-11T00:01:23.778Z,100363.34
2017-08-11T00:02:30.693Z,100358.98
2017-08-11T00:03:36.750Z,100365.33
2017-08-11T00:04:42.777Z,100354.63
2017-08-11T00:05:48.804Z,100358.09
2017-08-11T00:06:54.854Z,100353.08
2017-08-11T00:08:00.954Z,100352.32
2017-08-11T00:09:08.998Z,100345.96
2017-08-11T00:10:15.022Z,100349.08
2017-08-11T00:11:20.853Z,100350.27
2017-08-11T00:12:27.334Z,100348.23
2017-08-11T00:13:33.371Z,100342.73
2017-08-11T00:14:39.438Z,100342.87
2017-08-11T00:15:45.479Z,100344.44
2017-08-11T00:16:51.509Z,100339.22
2017-08-11T00:17:57.537Z,100346.95
2017-08-11T00:19:03.566Z,100341.16
2017-08-11T00:20:14.913Z,100336.70
2017-08-11T00:21:20.956Z,100339.23
2017-08-11T00:22:26.981Z,100337.06
2017-08-11T00:23:33.009Z,100329.70
2017-08-11T00:24:39.038Z,100328.97
2017-08-11T00:25:45.103Z,100326.20
2017-08-11T00:26:51.136Z,100324.24
2017-08-11T00:27:57.162Z,100330.12
2017-08-11T00:29:03.197Z,100326.91
2017-08-11T00:30:09.233Z,100326.91
2017-08-11T00:31:15.370Z,100329.38
2017-08-11T00:32:21.045Z,100328.59
2017-08-11T00:33:27.078Z,100326.25
2017-08-11T00:34:33.119Z,100324.02
2017-08-11T00:35:39.136Z,100320.95
2017-08-11T00:36:45.198Z,100320.06
2017-08-11T00:37:51.239Z,100319.48
2017-08-11T00:38:57.265Z,100325.27
2017-08-11T00:40:03.300Z,100310.16
2017-08-11T00:41:09.325Z,100314.06
2017-08-11T00:42:15.466Z,100314.26
2017-08-11T00:43:21.502Z,100314.69
2017-08-11T00:44:27.517Z,100309.18
2017-08-11T00:45:33.536Z,100308.91
2017-08-11T00:46:39.568Z,100313.73
2017-08-11T00:47:45.625Z,100314.03
2017-08-11T00:48:51.650Z,100316.59
2017-08-11T00:49:57.681Z,100313.03
2017-08-11T00:51:03.713Z,100305.88
2017-08-11T00:52:09.753Z,100297.59
2017-08-11T00:53:15.899Z,100306.30
2017-08-11T00:54:21.917Z,100302.70
2017-08-11T00:55:27.946Z,100301.67
2017-08-11T00:56:33.977Z,100302.15
2017-08-11T00:57:40.008Z,100300.57
2017-08-11T00:58:46.082Z,100300.22
2017-08-11T00:59:52.109Z,100298.69
2017-08-11T01:00:58.136Z,100293.39
2017-08-11T01:02:04.161Z,100295.30
2017-08-11T01:03:10.201Z,100290.48
2017-08-11T01:04:16.261Z,100289.48
2017-08-11T01:05:22.084Z,100285.36
2017-08-11T01:06:28.116Z,100289.88
2017-08-11T01:07:33.933Z,100289.79
2017-08-11T01:08:39.945Z,100296.24
2017-08-11T01:09:45.988Z,100300.97
2017-08-11T01:10:52.000Z,100297.31
2017-08-11T01:11:58.009Z,100299.74
2017-08-11T01:13:04.032Z,100300.27
2017-08-11T01:14:10.048Z,100294.76
2017-08-11T01:15:15.932Z,100293.80
2017-08-11T01:16:21.754Z,100292.33
2017-08-11T01:17:27.789Z,100294.13
2017-08-11T01:18:33.816Z,100303.30
2017-08-11T01:19:39.104Z,100297.50
2017-08-11T01:20:44.960Z,100294.20
2017-08-11T01:21:50.994Z,100294.47
2017-08-11T01:22:57.024Z,100285.73
2017-08-11T01:24:07.002Z,100284.70
2017-08-11T01:25:13.033Z,100283.48
2017-08-11T01:26:19.099Z,100284.33
2017-08-11T01:27:25.131Z,100284.16
2017-08-11T01:28:31.160Z,100285.80
2017-08-11T01:29:37.191Z,100283.59
2017-08-11T01:30:43.189Z,100280.58
2017-08-11T01:31:49.249Z,100284.02
2017-08-11T01:32:55.285Z,100276.56
2017-08-11T01:34:01.316Z,100277.48
2017-08-11T01:35:07.340Z,100271.69
2017-08-11T01:36:13.357Z,100277.17
2017-08-11T01:37:19.393Z,100273.59
2017-08-11T01:38:25.439Z,100273.26
2017-08-11T01:39:31.448Z,100276.78
2017-08-11T01:40:37.096Z,100280.11
2017-08-11T01:41:43.102Z,100271.95
2017-08-11T01:42:49.137Z,100269.27
2017-08-11T01:43:55.153Z,100279.80
2017-08-11T01:45:01.162Z,100280.64
2017-08-11T01:46:07.181Z,100282.54
2017-08-11T01:47:13.209Z,100278.97
2017-08-11T01:48:19.002Z,100282.90
2017-08-11T01:49:24.887Z,100281.75
2017-08-11T01:50:30.910Z,100282.27
2017-08-11T01:51:36.935Z,100282.36
2017-08-11T01:52:42.944Z,100281.80
2017-08-11T01:53:48.997Z,100276.06
2017-08-11T01:54:55.047Z,100277.30
2017-08-11T01:56:00.722Z,100272.62
2017-08-11T01:57:06.741Z,100273.54
2017-08-11T01:58:12.761Z,100271.72
2017-08-11T01:59:18.900Z,100274.11
2017-08-11T02:00:24.927Z,100280.34
2017-08-11T02:01:30.387Z,100278.98
2017-08-11T02:02:36.419Z,100282.02
2017-08-11T02:03:42.518Z,100276.50
2017-08-11T02:05:02.514Z,100273.85
2017-08-11T02:06:14.555Z,100263.98
2017-08-11T02:07:20.203Z,100260.42
2017-08-11T02:08:25.843Z,100262.85
2017-08-11T02:09:31.701Z,100265.83
2017-08-11T02:10:37.704Z,100259.77
2017-08-11T02:11:43.701Z,100261.38
2017-08-11T02:12:49.704Z,100259.52
2017-08-11T02:13:55.338Z,100260.34
2017-08-11T02:15:01.406Z,100264.70
2017-08-11T02:16:07.422Z,100254.77
2017-08-11T02:17:13.427Z,100255.89
2017-08-11T02:18:19.421Z,100253.63
2017-08-11T02:19:25.693Z,100252.45
2017-08-11T02:20:31.380Z,100253.58
2017-08-11T02:21:37.389Z,100250.70
2017-08-11T02:22:43.392Z,100254.25
2017-08-11T02:23:49.402Z,100251.13
2017-08-11T02:24:55.418Z,100248.83
2017-08-11T02:26:01.460Z,100248.00
2017-08-11T02:27:07.456Z,100238.73
2017-08-11T02:28:13.465Z,100243.90
2017-08-11T02:29:19.512Z,100244.28
2017-08-11T02:30:25.515Z,100244.58
2017-08-11T02:31:31.555Z,100248.68
2017-08-11T02:32:37.561Z,100241.58
2017-08-11T02:33:43.561Z,100247.66
2017-08-11T02:34:49.563Z,100253.28
2017-08-11T02:35:55.568Z,100252.98
2017-08-11T02:37:01.609Z,100254.90
2017-08-11T02:38:07.620Z,100252.95
2017-08-11T02:39:13.638Z,100259.34
2017-08-11T02:40:19.741Z,100259.75
2017-08-11T02:41:25.737Z,100260.77
2017-08-11T02:42:31.772Z,100256.19
2017-08-11T02:43:37.779Z,100265.56
2017-08-11T02:44:43.769Z,100259.44
2017-08-11T02:45:50.953Z,100260.69
2017-08-11T02:46:56.946Z,100259.94
2017-08-11T02:48:02.977Z,100256.19
2017-08-11T02:49:08.992Z,100259.98
2017-08-11T02:50:14.990Z,100263.59
2017-08-11T02:51:21.010Z,100262.31
2017-08-11T02:52:27.018Z,100263.31
2017-08-11T02:53:33.060Z,100265.17
2017-08-11T02:54:39.046Z,100263.31
2017-08-11T02:55:45.048Z,100271.34
2017-08-11T02:56:51.053Z,100274.74
2017-08-11T02:57:57.060Z,100273.89
2017-08-11T02:59:03.101Z,100266.36
2017-08-11T03:00:09.099Z,100268.49
2017-08-11T03:01:14.890Z,100275.38
2017-08-11T03:02:21.097Z,100267.84
2017-08-11T03:03:27.097Z,100275.17
2017-08-11T03:04:33.135Z,100275.89
2017-08-11T03:05:39.138Z,100282.90
2017-08-11T03:06:45.201Z,100275.10
2017-08-11T03:07:51.232Z,100279.84
2017-08-11T03:08:56.857Z,100281.34
2017-08-11T03:10:02.903Z,100274.09
2017-08-11T03:11:08.913Z,100277.69
2017-08-11T03:12:14.925Z,100283.37
2017-08-11T03:13:20.924Z,100278.30
2017-08-11T03:14:26.926Z,100281.89
2017-08-11T03:15:32.969Z,100273.03
2017-08-11T03:16:38.976Z,100281.16
2017-08-11T03:17:44.968Z,100272.09
2017-08-11T03:18:50.986Z,100270.39
2017-08-11T03:19:56.993Z,100274.69
2017-08-11T03:21:02.650Z,100275.17
2017-08-11T03:22:14.212Z,100278.83
2017-08-11T03:23:22.003Z,100273.44
2017-08-11T03:24:27.994Z,100270.45
2017-08-11T03:25:33.993Z,100274.34
2017-08-11T03:26:39.834Z,100265.62
2017-08-11T03:27:45.488Z,100274.42
2017-08-11T03:28:51.487Z,100268.74
2017-08-11T03:29:57.481Z,100270.52
2017-08-11T03:31:03.477Z,100273.47
2017-08-11T03:32:10.330Z,100275.64
2017-08-11T03:33:16.516Z,100272.34
2017-08-11T03:34:23.769Z,100282.36
2017-08-11T03:35:30.113Z,100275.06
2017-08-11T03:36:36.214Z,100280.73
2017-08-11T03:37:42.282Z,100283.02
2017-08-11T03:38:48.315Z,100278.19
2017-08-11T03:39:54.396Z,100284.13
2017-08-11T03:41:00.424Z,100282.80
2017-08-11T03:42:06.457Z,100285.41
2017-08-11T03:43:19.688Z,100283.56
2017-08-11T03:44:26.058Z,100289.64
2017-08-11T03:45:43.164Z,100286.52
2017-08-11T03:46:48.260Z,100289.21
2017-08-11T03:47:54.069Z,100282.54
2017-08-11T03:49:00.100Z,100279.38
2017-08-11T03:50:05.901Z,100281.61
2017-08-11T03:51:11.904Z,100285.93
2017-08-11T03:52:17.708Z,100286.27
2017-08-11T03:53:23.741Z,100281.95
2017-08-11T03:54:29.744Z,100280.16
2017-08-11T03:55:35.557Z,100288.55
2017-08-11T03:56:41.569Z,100283.25
2017-08-11T03:57:47.572Z,100283.28
2017-08-11T03:58:53.621Z,100285.20
2017-08-11T03:59:59.614Z,100281.50
2017-08-11T04:01:05.619Z,100284.53
2017-08-11T04:02:11.415Z,100280.59
2017-08-11T04:03:17.210Z,100286.28
2017-08-11T04:04:22.685Z,100277.05
2017-08-11T04:05:28.497Z,100277.74
2017-08-11T04:06:34.300Z,100273.47
2017-08-11T04:07:40.116Z,100277.42
2017-08-11T04:08:46.373Z,100277.84
2017-08-11T04:09:52.210Z,100281.41
2017-08-11T04:10:58.014Z,100273.25
2017-08-11T04:12:03.813Z,100277.27
2017-08-11T04:13:09.943Z,100276.84
2017-08-11T04:14:16.505Z,100274.20
2017-08-11T04:15:23.205Z,100277.58
2017-08-11T04:16:29.684Z,100276.89
2017-08-11T04:17:35.797Z,100283.05
2017-08-11T04:18:41.604Z,100280.39
2017-08-11T04:19:47.422Z,100281.24
2017-08-11T04:20:53.269Z,100277.65
2017-08-11T04:21:59.068Z,100275.56
2017-08-11T04:23:04.876Z,100274.08
2017-08-11T04:24:10.668Z,100268.95
2017-08-11T04:25:16.454Z,100265.70
2017-08-11T04:26:22.300Z,100272.62
2017-08-11T04:27:28.091Z,100271.97
2017-08-11T04:28:33.877Z,100275.20
2017-08-11T04:29:39.682Z,100280.63
2017-08-11T04:30:45.473Z,100291.30
2017-08-11T04:31:51.313Z,100293.09
2017-08-11T04:32:57.810Z,100295.74
2017-08-11T04:34:04.405Z,100307.89
2017-08-11T04:35:10.932Z,100306.66
2017-08-11T04:36:16.738Z,100305.94
2017-08-11T04:37:22.577Z,100307.09
2017-08-11T04:38:28.372Z,100311.91
2017-08-11T04:39:34.201Z,100310.97
2017-08-11T04:40:40.015Z,100310.08
2017-08-11T04:41:45.805Z,100305.95
2017-08-11T04:42:51.638Z,100308.95
2017-08-11T04:43:57.532Z,100305.09
2017-08-11T04:45:03.325Z,100300.85
2017-08-11T04:46:09.138Z,100301.75
2017-08-11T04:47:14.952Z,100301.33
2017-08-11T04:48:20.828Z,100295.90
2017-08-11T04:49:26.629Z,100296.07
2017-08-11T04:50:32.430Z,100292.52
2017-08-11T04:51:38.212Z,100293.78
2017-08-11T04:52:44.023Z,100292.46
2017-08-11T04:53:49.861Z,100281.33
2017-08-11T04:54:55.654Z,100285.68
2017-08-11T04:56:01.523Z,100280.93
2017-08-11T04:57:07.715Z,100276.45
2017-08-11T04:58:13.548Z,100279.48
2017-08-11T04:59:19.389Z,100274.86
2017-08-11T05:00:25.212Z,100270.52
2017-08-11T05:01:31.009Z,100263.69
2017-08-11T05:02:36.805Z,100260.14
2017-08-11T05:03:42.608Z,100256.70
2017-08-11T05:04:48.442Z,100261.59
2017-08-11T05:05:54.248Z,100260.86
2017-08-11T05:07:00.036Z,100253.71
2017-08-11T05:08:05.857Z,100260.56
2017-08-11T05:09:11.661Z,100259.48
2017-08-11T05:10:17.480Z,100252.20
2017-08-11T05:11:23.281Z,100255.91
2017-08-11T05:12:29.086Z,100259.12
2017-08-11T05:13:34.882Z,100260.87
2017-08-11T05:14:40.683Z,100256.72
2017-08-11T05:15:46.517Z,100257.81
2017-08-11T05:16:52.313Z,100256.06
2017-08-11T05:17:58.113Z,100255.27
2017-08-11T05:19:03.904Z,100259.44
2017-08-11T05:20:09.735Z,100253.91
2017-08-11T05:21:15.562Z,100254.83
2017-08-11T05:22:21.364Z,100255.53
2017-08-11T05:23:27.239Z,100242.62
2017-08-11T05:24:33.041Z,100239.92
2017-08-11T05:25:38.830Z,100238.98
2017-08-11T05:26:44.684Z,100239.00
2017-08-11T05:27:50.482Z,100238.45
2017-08-11T05:28:56.280Z,100238.60
2017-08-11T05:30:02.077Z,100243.43
2017-08-11T05:31:07.868Z,100243.56
2017-08-11T05:32:13.714Z,100238.45
2017-08-11T05:33:19.520Z,100239.50
2017-08-11T05:34:25.332Z,100240.91
2017-08-11T05:35:31.132Z,100238.25
2017-08-11T05:36:36.929Z,100238.23
2017-08-11T05:37:42.774Z,100237.90
2017-08-11T05:38:49.431Z,100239.83
2017-08-11T05:39:55.689Z,100235.02
2017-08-11T05:41:01.509Z,100240.05
2017-08-11T05:42:07.313Z,100241.14
2017-08-11T05:43:13.635Z,100243.55
2017-08-11T05:44:20.392Z,100248.05
2017-08-11T05:45:26.957Z,100247.63
2017-08-11T05:46:33.991Z,100247.02
2017-08-11T05:47:42.056Z,100240.63
2017-08-11T05:48:50.394Z,100240.39
2017-08-11T05:49:59.822Z,100244.37
2017-08-11T05:51:07.410Z,100244.32
2017-08-11T05:52:13.214Z,100246.41
2017-08-11T05:53:19.013Z,100244.66
2017-08-11T05:54:24.852Z,100243.47
2017-08-11T05:55:30.719Z,100243.09
2017-08-11T05:56:36.531Z,100243.32
2017-08-11T05:57:43.129Z,100245.92
2017-08-11T05:58:49.594Z,100244.55
2017-08-11T05:59:57.217Z,100243.70
2017-08-11T06:01:03.012Z,100243.27
2017-08-11T06:02:08.811Z,100246.22
2017-08-11T06:03:14.624Z,100246.41
2017-08-11T06:04:20.801Z,100241.91
2017-08-11T06:05:27.838Z,100245.04
2017-08-11T06:06:33.812Z,100251.67
2017-08-11T06:07:39.888Z,100267.72
2017-08-11T06:08:45.993Z,100275.91
2017-08-11T06:09:51.796Z,100277.34
2017-08-11T06:10:57.643Z,100279.00
2017-08-11T06:12:03.442Z,100273.45
2017-08-11T06:13:09.270Z,100270.22
2017-08-11T06:14:15.068Z,100273.25
2017-08-11T06:15:20.882Z,100266.81
2017-08-11T06:16:26.727Z,100277.09
2017-08-11T06:17:32.517Z,100282.84
2017-08-11T06:18:38.306Z,100288.81
2017-08-11T06:19:44.100Z,100298.64
2017-08-11T06:20:49.888Z,100297.30
2017-08-11T06:21:55.718Z,100291.66
2017-08-11T06:23:01.529Z,100289.94
2017-08-11T06:24:07.333Z,100296.09
2017-08-11T06:25:13.170Z,100299.59
2017-08-11T06:26:18.969Z,100304.17
2017-08-11T06:27:24.814Z,100309.27
2017-08-11T06:28:30.613Z,100310.95
2017-08-11T06:29:36.510Z,100310.42
2017-08-11T06:30:42.317Z,100304.16
2017-08-11T06:31:48.189Z,100303.92
2017-08-11T06:32:54.046Z,100296.80
2017-08-11T06:33:59.865Z,100296.09
2017-08-11T06:35:05.678Z,100289.89
2017-08-11T06:36:11.476Z,100289.03
2017-08-11T06:37:17.289Z,100283.98
2017-08-11T06:38:23.141Z,100282.45
2017-08-11T06:39:28.953Z,100275.75
2017-08-11T06:40:34.777Z,100274.35
2017-08-11T06:41:40.573Z,100275.92
2017-08-11T06:42:46.394Z,100274.13
2017-08-11T06:43:52.246Z,100270.23
2017-08-11T06:44:58.075Z,100275.07
2017-08-11T06:46:03.881Z,100278.20
2017-08-11T06:47:09.676Z,100283.88
2017-08-11T06:48:15.486Z,100279.93
2017-08-11T06:49:21.323Z,100279.75
2017-08-11T06:50:27.128Z,100279.77
2017-08-11T06:51:32.937Z,100281.42
2017-08-11T06:52:38.782Z,100278.30
2017-08-11T06:53:44.574Z,100279.44
2017-08-11T06:54:50.409Z,100279.06
2017-08-11T06:55:56.210Z,100279.27
2017-08-11T06:57:02.016Z,100277.61
2017-08-11T06:58:07.816Z,100278.73
2017-08-11T06:59:13.625Z,100276.56
2017-08-11T07:00:19.465Z,100278.06
2017-08-11T07:01:25.261Z,100269.03
2017-08-11T07:02:31.060Z,100263.14
2017-08-11T07:03:36.929Z,100261.31
2017-08-11T07:04:42.724Z,100257.98
2017-08-11T07:05:48.553Z,100255.33
2017-08-11T07:06:54.345Z,100253.86
2017-08-11T07:08:00.136Z,100263.14
2017-08-11T07:09:05.224Z,100267.56
2017-08-11T07:10:11.022Z,100272.49
2017-08-11T07:11:16.850Z,100276.72
2017-08-11T07:12:22.646Z,100272.34
2017-08-11T07:13:28.449Z,100271.36
2017-08-11T07:14:34.264Z,100259.03
2017-08-11T07:15:42.220Z,100259.08
2017-08-11T07:16:48.057Z,100259.89
2017-08-11T07:17:53.858Z,100267.14
2017-08-11T07:18:59.664Z,100263.06
2017-08-11T07:20:05.465Z,100267.62
2017-08-11T07:21:11.261Z,100271.08
2017-08-11T07:22:17.108Z,100272.92
2017-08-11T07:23:22.918Z,100271.66
2017-08-11T07:24:28.718Z,100268.34
2017-08-11T07:25:34.535Z,100269.00
2017-08-11T07:26:40.344Z,100271.90
2017-08-11T07:27:46.165Z,100275.88
2017-08-11T07:28:51.977Z,100268.29
2017-08-11T07:29:57.769Z,100271.70
2017-08-11T07:31:03.588Z,100276.02
2017-08-11T07:32:09.426Z,100275.55
2017-08-11T07:33:20.702Z,100282.13
2017-08-11T07:34:28.069Z,100284.17
2017-08-11T07:35:33.867Z,100282.98
2017-08-11T07:36:39.326Z,100281.95
2017-08-11T07:37:45.118Z,100275.92
2017-08-11T07:38:50.947Z,100273.31
2017-08-11T07:39:56.751Z,100273.12
2017-08-11T07:41:02.585Z,100278.67
2017-08-11T07:42:08.395Z,100289.20
2017-08-11T07:43:14.216Z,100293.61
2017-08-11T07:44:20.073Z,100299.05
2017-08-11T07:45:25.878Z,100299.91
2017-08-11T07:46:31.704Z,100305.52
2017-08-11T07:47:37.520Z,100304.19
2017-08-11T07:48:43.318Z,100312.68
2017-08-11T07:49:48.791Z,100313.34
2017-08-11T07:50:54.585Z,100312.34
2017-08-11T07:52:00.395Z,100314.56
2017-08-11T07:53:06.209Z,100319.64
2017-08-11T07:54:12.009Z,100320.11
2017-08-11T07:55:17.854Z,100327.18
2017-08-11T07:56:23.653Z,100327.27
2017-08-11T07:57:29.457Z,100330.21
2017-08-11T07:58:35.261Z,100324.06
2017-08-11T07:59:41.074Z,100319.48
2017-08-11T08:00:46.890Z,100310.34
2017-08-11T08:01:52.696Z,100300.67
2017-08-11T08:02:58.490Z,100303.43
2017-08-11T08:04:04.308Z,100304.56
2017-08-11T08:05:10.113Z,100306.79
2017-08-11T08:06:15.960Z,100311.77
2017-08-11T08:07:21.826Z,100315.94
2017-08-11T08:08:27.885Z,100323.72
2017-08-11T08:09:33.685Z,100330.41
2017-08-11T08:10:39.482Z,100324.76
2017-08-11T08:11:45.398Z,100325.55
2017-08-11T08:12:51.209Z,100324.66
2017-08-11T08:13:57.007Z,100316.97
2017-08-11T08:15:07.880Z,100309.11
2017-08-11T08:16:13.664Z,100304.78
2017-08-11T08:17:19.512Z,100294.87
2017-08-11T08:18:25.309Z,100299.59
2017-08-11T08:19:31.109Z,100303.30
2017-08-11T08:20:36.908Z,100309.59
2017-08-11T08:21:42.705Z,100322.34
2017-08-11T08:22:48.570Z,100324.39
2017-08-11T08:23:54.372Z,100323.81
2017-08-11T08:25:00.177Z,100327.19
2017-08-11T08:26:05.989Z,100329.47
2017-08-11T08:27:11.801Z,100328.45
2017-08-11T08:28:17.629Z,100332.67
2017-08-11T08:29:23.436Z,100327.41
2017-08-11T08:30:29.260Z,100322.05
2017-08-11T08:31:35.060Z,100320.39
2017-08-11T08:32:40.932Z,100308.68
2017-08-11T08:33:46.781Z,100308.44
2017-08-11T08:34:52.593Z,100308.39
2017-08-11T08:36:00.089Z,100314.08
2017-08-11T08:37:05.900Z,100326.22
2017-08-11T08:38:11.718Z,100342.92
2017-08-11T08:39:17.586Z,100351.85
2017-08-11T08:40:23.400Z,100363.47
2017-08-11T08:41:29.237Z,100360.86
2017-08-11T08:42:35.044Z,100342.08
2017-08-11T08:43:40.981Z,100317.40
2017-08-11T08:44:46.866Z,100295.53
2017-08-11T08:45:52.673Z,100298.67
2017-08-11T08:46:58.473Z,100320.83
2017-08-11T08:48:03.902Z,100345.06
2017-08-11T08:49:09.702Z,100347.48
2017-08-11T08:50:15.517Z,100345.57
2017-08-11T08:51:21.355Z,100338.98
2017-08-11T08:52:27.164Z,100350.38
2017-08-11T08:53:32.966Z,100351.61
2017-08-11T08:54:38.787Z,100359.73
2017-08-11T08:55:44.635Z,100360.16
2017-08-11T08:56:54.045Z,100349.34
2017-08-11T08:58:03.788Z,100356.13
2017-08-11T08:59:09.584Z,100353.62
2017-08-11T09:00:15.389Z,100356.47
2017-08-11T09:01:21.226Z,100358.75
2017-08-11T09:02:27.012Z,100368.53
2017-08-11T09:03:32.812Z,100368.48
2017-08-11T09:04:38.634Z,100373.13
2017-08-11T09:05:44.440Z,100374.45
2017-08-11T09:06:50.286Z,100373.93
2017-08-11T09:07:56.098Z,100366.78
2017-08-11T09:09:01.918Z,100366.14
2017-08-11T09:10:07.732Z,100370.84
2017-08-11T09:11:13.546Z,100373.27
2017-08-11T09:12:19.391Z,100371.45
2017-08-11T09:13:25.189Z,100371.30
2017-08-11T09:14:30.980Z,100369.55
2017-08-11T09:15:36.791Z,100365.29
2017-08-11T09:16:42.584Z,100361.63
2017-08-11T09:17:51.845Z,100362.05
2017-08-11T09:19:01.782Z,100367.95
2017-08-11T09:20:10.652Z,100374.36
2017-08-11T09:21:16.078Z,100384.51
2017-08-11T09:22:21.884Z,100389.45
2017-08-11T09:23:27.730Z,100383.09
2017-08-11T09:24:44.561Z,100386.14
2017-08-11T09:26:01.406Z,100389.28
2017-08-11T09:27:18.273Z,100389.14
2017-08-11T09:28:35.160Z,100386.19
2017-08-11T09:29:51.905Z,100377.19
2017-08-11T09:31:08.885Z,100376.34
2017-08-11T09:32:25.883Z,100373.41
2017-08-11T09:33:42.776Z,100375.39
2017-08-11T09:34:59.768Z,100369.59
2017-08-11T09:36:16.705Z,100363.09
2017-08-11T09:37:22.514Z,100360.42
2017-08-11T09:38:31.236Z,100355.67
2017-08-11T09:39:41.739Z,100348.52
2017-08-11T09:40:47.733Z,100347.19
2017-08-11T09:41:53.763Z,100348.17
2017-08-11T09:42:59.784Z,100349.91
2017-08-11T09:44:05.781Z,100345.91
2017-08-11T09:45:11.856Z,100338.61
2017-08-11T09:46:17.857Z,100335.16
2017-08-11T09:47:23.852Z,100329.41
2017-08-11T09:48:29.855Z,100331.35
2017-08-11T09:49:35.862Z,100329.36
2017-08-11T09:50:41.908Z,100319.05
2017-08-11T09:51:47.910Z,100312.40
2017-08-11T09:52:53.912Z,100311.30
2017-08-11T09:53:59.900Z,100304.85
2017-08-11T09:55:05.900Z,100297.96
2017-08-11T09:56:11.928Z,100287.75
2017-08-11T09:57:17.928Z,100280.97
2017-08-11T09:58:23.932Z,100277.89
2017-08-11T09:59:37.752Z,100271.48
2017-08-11T10:00:43.753Z,100268.06
2017-08-11T10:01:49.793Z,100267.98
2017-08-11T10:02:55.796Z,100266.83
2017-08-11T10:04:01.796Z,100264.06
2017-08-11T10:05:07.802Z,100263.14
2017-08-11T10:06:13.805Z,100256.39
2017-08-11T10:07:19.836Z,100256.18
2017-08-11T10:08:25.843Z,100247.98
2017-08-11T10:09:38.809Z,100252.81
2017-08-11T10:10:56.733Z,100256.47
2017-08-11T10:12:05.823Z,100259.38
2017-08-11T10:13:11.854Z,100254.73
2017-08-11T10:14:17.849Z,100247.44
2017-08-11T10:15:23.849Z,100248.03
2017-08-11T10:16:29.849Z,100246.62
2017-08-11T10:17:35.857Z,100251.69
2017-08-11T10:18:41.969Z,100257.41
2017-08-11T10:19:47.970Z,100255.91
2017-08-11T10:20:53.964Z,100250.83
2017-08-11T10:21:59.965Z,100239.03
2017-08-11T10:23:05.959Z,100228.22
2017-08-11T10:24:11.993Z,100215.34
2017-08-11T10:25:17.984Z,100212.94
2017-08-11T10:26:23.986Z,100199.58
2017-08-11T10:27:31.800Z,100195.44
2017-08-11T10:28:37.793Z,100188.20
2017-08-11T10:29:43.835Z,100181.36
2017-08-11T10:30:49.850Z,100171.98
2017-08-11T10:31:55.849Z,100168.91
2017-08-11T10:33:01.863Z,100167.23
2017-08-11T10:34:08.061Z,100162.72
2017-08-11T10:35:14.144Z,100158.82
2017-08-11T10:36:20.176Z,100157.51
2017-08-11T10:37:26.177Z,100161.88
2017-08-11T10:38:32.181Z,100172.04
2017-08-11T10:39:38.181Z,100179.80
2017-08-11T10:40:44.202Z,100183.74
2017-08-11T10:41:57.539Z,100189.06
2017-08-11T10:43:03.573Z,100201.16
2017-08-11T10:44:09.582Z,100204.88
2017-08-11T10:45:15.607Z,100217.50
2017-08-11T10:46:21.649Z,100233.20
2017-08-11T10:47:27.642Z,100243.45
2017-08-11T10:48:33.633Z,100247.59
2017-08-11T10:49:39.630Z,100252.42
2017-08-11T10:50:45.632Z,100250.05
2017-08-11T10:51:51.664Z,100233.41
2017-08-11T10:52:57.676Z,100225.64
2017-08-11T10:54:03.684Z,100214.41
2017-08-11T10:55:09.681Z,100211.97
2017-08-11T10:56:15.677Z,100215.91
2017-08-11T10:57:21.714Z,100218.31
2017-08-11T10:58:27.704Z,100222.41
2017-08-11T10:59:33.708Z,100216.02
2017-08-11T11:00:39.714Z,100221.48
2017-08-11T11:01:45.721Z,100212.11
2017-08-11T11:02:54.827Z,100210.56
2017-08-11T11:04:04.185Z,100211.46
2017-08-11T11:05:10.229Z,100215.68
2017-08-11T11:06:16.231Z,100204.78
2017-08-11T11:07:22.231Z,100206.97
2017-08-11T11:08:28.269Z,100206.70
2017-08-11T11:09:34.303Z,100202.37
2017-08-11T11:10:40.312Z,100202.11
2017-08-11T11:11:46.313Z,100204.77
2017-08-11T11:12:52.321Z,100209.52
2017-08-11T11:13:58.364Z,100224.69
2017-08-11T11:15:04.364Z,100231.23
2017-08-11T11:16:10.384Z,100235.45
2017-08-11T11:17:16.383Z,100239.44
2017-08-11T11:18:22.394Z,100244.56
2017-08-11T11:19:28.445Z,100243.87
2017-08-11T11:20:34.450Z,100250.73
2017-08-11T11:23:26.074Z,100261.99
2017-08-11T11:24:35.488Z,100261.45
2017-08-11T11:25:41.575Z,100255.31
2017-08-11T11:26:47.580Z,100257.61
2017-08-11T11:28:01.470Z,100257.38
2017-08-11T11:29:11.223Z,100258.34
2017-08-11T11:30:17.245Z,100264.41
2017-08-11T11:31:23.241Z,100268.98
2017-08-11T11:32:29.244Z,100272.78
2017-08-11T11:33:35.247Z,100280.94
2017-08-11T11:34:41.341Z,100287.11
2017-08-11T11:35:47.373Z,100290.39
2017-08-11T11:36:53.390Z,100284.00
2017-08-11T11:37:59.405Z,100289.58
2017-08-11T11:39:04.533Z,100277.94
2017-08-11T11:40:10.537Z,100284.10
2017-08-11T11:41:16.574Z,100293.35
2017-08-11T11:42:22.573Z,100293.92
2017-08-11T11:43:28.602Z,100308.80
2017-08-11T11:44:38.448Z,100307.65
2017-08-11T11:45:47.978Z,100302.48
2017-08-11T11:46:54.004Z,100302.63
2017-08-11T11:48:00.002Z,100306.36
2017-08-11T11:49:05.814Z,100305.88
2017-08-11T11:51:53.886Z,100308.12
2017-08-11T11:52:59.724Z,100316.49
2017-08-11T11:54:15.294Z,100318.00
2017-08-11T11:55:21.304Z,100325.18
2017-08-11T11:56:27.109Z,100325.55
2017-08-11T11:57:33.156Z,100329.48
2017-08-11T11:58:39.157Z,100331.83
2017-08-11T11:59:45.158Z,100340.77
2017-08-11T12:00:51.148Z,100348.64
2017-08-11T12:01:57.143Z,100348.47
2017-08-11T12:03:03.179Z,100352.17
2017-08-11T12:04:08.824Z,100352.94
2017-08-11T12:05:14.841Z,100354.64
2017-08-11T12:06:20.670Z,100352.56
2017-08-11T12:07:26.140Z,100352.99
2017-08-11T12:08:31.976Z,100353.50
2017-08-11T12:09:37.980Z,100358.83
2017-08-11T12:10:43.989Z,100362.92
2017-08-11T12:11:50.013Z,100362.02
2017-08-11T12:12:56.022Z,100368.98
2017-08-11T12:14:02.059Z,100365.28
2017-08-11T12:15:08.060Z,100364.12
2017-08-11T12:16:14.065Z,100369.27
2017-08-11T12:17:20.056Z,100365.59
2017-08-11T12:18:26.062Z,100365.08
2017-08-11T12:19:32.093Z,100370.83
2017-08-11T12:20:38.109Z,100368.68
2017-08-11T12:21:44.105Z,100354.05
2017-08-11T12:22:50.097Z,100362.67
2017-08-11T12:23:56.097Z,100358.64
2017-08-11T12:25:02.133Z,100356.33
2017-08-11T12:26:08.125Z,100357.36
2017-08-11T12:27:14.135Z,100347.44
2017-08-11T12:28:20.136Z,100343.34
2017-08-11T12:29:26.136Z,100344.48
2017-08-11T12:30:32.176Z,100340.15
2017-08-11T12:31:38.169Z,100333.91
2017-08-11T12:32:44.168Z,100331.56
2017-08-11T12:33:50.171Z,100331.98
2017-08-11T12:34:56.177Z,100321.94
2017-08-11T12:36:02.230Z,100316.81
2017-08-11T12:37:08.038Z,100311.91
2017-08-11T12:38:14.042Z,100313.30
2017-08-11T12:39:20.044Z,100304.31
2017-08-11T12:40:26.052Z,100306.17